Time;durP1;ratioP1;P1;durP2;ratioP2;P2;SDS_P1;SDS_P2;PMS_P1;PMS_P2;Temp;Humidity;BMP_temperature;BMP_pressure;BME280_temperature;BME280_humidity;BME280_pressure;Samples;Min_cycle;Max_cycle;Signal;HPM_P1;HPM_P2
2023/06/08 00:01:40;;;;;;;12.30;6.00;;;;;;;-142.75;100.00;77090.00;5063925;28;20100;-65
2023/06/08 00:04:07;;;;;;;12.90;5.75;;;;;;;-142.75;100.00;77086.06;5061476;28;20020;-65
2023/06/08 00:06:33;;;;;;;10.98;5.20;;;;;;;-142.75;100.00;77090.00;5064432;28;20085;-65
2023/06/08 00:09:04;;;;;;;12.07;5.95;;;;;;;-142.75;100.00;77084.09;5063287;28;20075;-63
2023/06/08 00:11:29;;;;;;;10.07;5.65;;;;;;;-142.75;100.00;77090.00;5063468;28;20036;-64
2023/06/08 00:13:55;;;;;;;14.93;6.15;;;;;;;-142.75;100.00;77099.84;5064646;28;20032;-64
2023/06/08 00:16:21;;;;;;;16.15;7.22;;;;;;;-142.75;100.00;77095.91;5065118;28;20036;-65
2023/06/08 00:18:49;;;;;;;15.38;6.10;;;;;;;-142.75;100.00;77099.84;5064853;28;20020;-64
2023/06/08 00:21:16;;;;;;;9.65;6.15;;;;;;;-142.75;100.00;77086.06;5063793;28;20060;-63
2023/06/08 00:23:41;;;;;;;19.05;6.45;;;;;;;-142.75;100.00;77091.97;5063937;28;20021;-64
2023/06/08 00:26:07;;;;;;;16.60;6.47;;;;;;;-142.75;100.00;77091.97;5063171;28;20032;-60
2023/06/08 00:28:32;;;;;;;17.23;6.07;;;;;;;-142.75;100.00;77086.06;5079139;28;20034;-64
2023/06/08 00:30:57;;;;;;;18.08;7.53;;;;;;;-142.75;100.00;77090.00;5065630;28;20060;-64
2023/06/08 00:33:23;;;;;;;17.05;6.43;;;;;;;-142.75;100.00;77097.88;5068721;28;20028;-61
2023/06/08 00:35:48;;;;;;;16.77;6.78;;;;;;;-142.75;100.00;77091.97;5069215;28;20028;-65
2023/06/08 00:38:14;;;;;;;13.23;6.53;;;;;;;-142.75;100.00;77105.75;5068700;28;20075;-65
2023/06/08 00:40:39;;;;;;;13.20;6.43;;;;;;;-142.75;100.00;77101.81;5068766;28;20094;-63
2023/06/08 00:43:04;;;;;;;15.00;6.00;;;;;;;-142.75;100.00;77099.84;5068675;28;20108;-64
2023/06/08 00:45:30;;;;;;;16.55;6.97;;;;;;;-142.75;100.00;77095.91;5067298;28;20026;-64
2023/06/08 00:47:55;;;;;;;14.35;6.65;;;;;;;-142.75;100.00;77099.84;5068628;28;20029;-62
2023/06/08 00:50:23;;;;;;;16.00;6.60;;;;;;;-142.75;100.00;77091.97;5068484;28;20486;-64
2023/06/08 00:52:49;;;;;;;13.82;6.22;;;;;;;-142.75;100.00;77101.81;5068050;28;20020;-62
2023/06/08 00:55:19;;;;;;;14.23;6.57;;;;;;;-142.75;100.00;77095.91;5068235;28;20048;-65
2023/06/08 00:57:47;;;;;;;17.17;7.25;;;;;;;-142.75;100.00;77101.81;5084095;28;20110;-65
2023/06/08 01:00:13;;;;;;;15.70;6.70;;;;;;;-142.75;100.00;77107.72;5068552;28;20108;-63
2023/06/08 01:02:41;;;;;;;17.48;6.88;;;;;;;-142.75;100.00;77097.88;5066896;28;20031;-62
2023/06/08 01:05:07;;;;;;;18.60;6.93;;;;;;;-142.75;100.00;77105.75;5067192;28;20024;-63
2023/06/08 01:07:55;;;;;;;12.75;6.72;;;;;;;-142.75;100.00;77101.81;5067067;28;20048;-65
2023/06/08 01:10:57;;;;;;;13.75;6.95;;;;;;;-142.75;100.00;77099.84;5067949;28;20119;-65
2023/06/08 01:13:53;;;;;;;17.02;7.50;;;;;;;-142.75;100.00;77107.72;5059357;28;20112;-61
2023/06/08 01:16:21;;;;;;;20.10;7.20;;;;;;;-142.75;100.00;77117.56;5064650;28;20040;-62
2023/06/08 01:18:47;;;;;;;14.57;6.38;;;;;;;-142.75;100.00;77125.44;5083694;28;20042;-62
2023/06/08 01:21:25;;;;;;;15.25;6.70;;;;;;;-142.75;100.00;77111.66;5066595;28;20043;-60
2023/06/08 01:24:02;;;;;;;12.93;7.15;;;;;;;-142.75;100.00;77109.69;5067912;28;20025;-60
2023/06/08 01:26:31;;;;;;;13.85;7.07;;;;;;;-142.75;100.00;77141.19;5067753;28;20047;-61
2023/06/08 01:28:56;;;;;;;12.60;6.65;;;;;;;-142.75;100.00;77127.41;5067957;28;20036;-61
2023/06/08 01:31:22;;;;;;;14.02;6.43;;;;;;;-142.75;100.00;77133.31;5067994;28;20036;-62
2023/06/08 01:33:47;;;;;;;18.48;7.00;;;;;;;-142.75;100.00;77131.34;5067655;28;20028;-63
2023/06/08 01:36:33;;;;;;;13.77;7.22;;;;;;;-142.75;100.00;77123.47;5068190;28;20504;-58
2023/06/08 01:39:23;;;;;;;15.65;6.20;;;;;;;-142.75;100.00;77141.19;5067873;28;20398;-62
2023/06/08 01:41:54;;;;;;;12.95;6.88;;;;;;;-142.75;100.00;77135.28;5067272;28;20359;-62
2023/06/08 01:44:21;;;;;;;16.20;7.10;;;;;;;-142.75;100.00;77162.84;5067383;28;20020;-61
2023/06/08 01:46:55;;;;;;;14.63;6.93;;;;;;;-142.75;100.00;77147.09;5067524;28;20024;-63
2023/06/08 01:49:23;;;;;;;14.60;6.75;;;;;;;-142.75;100.00;77141.19;5067584;28;20024;-62
2023/06/08 01:51:50;;;;;;;14.27;6.25;;;;;;;-142.75;100.00;77137.25;5066073;28;20637;-61
2023/06/08 01:54:15;;;;;;;11.13;6.35;;;;;;;-142.75;100.00;77127.41;5067164;28;20031;-63
2023/06/08 01:56:40;;;;;;;15.70;6.55;;;;;;;-142.75;100.00;77137.25;5067601;28;20036;-62
2023/06/08 01:59:06;;;;;;;12.98;7.25;;;;;;;-142.75;100.00;77125.44;5067064;28;20032;-62
2023/06/08 02:01:31;;;;;;;16.40;6.85;;;;;;;-142.75;100.00;77115.59;5067210;28;20040;-62
2023/06/08 02:03:56;;;;;;;17.13;6.95;;;;;;;-142.75;100.00;77125.44;5067287;28;20024;-59
2023/06/08 02:06:22;;;;;;;15.82;6.53;;;;;;;-142.75;100.00;77117.56;5067628;28;20025;-59
2023/06/08 02:08:47;;;;;;;16.40;7.05;;;;;;;-142.75;100.00;77123.47;5067126;28;20016;-62
2023/06/08 02:11:13;;;;;;;14.52;6.50;;;;;;;-142.75;100.00;77129.38;5066811;28;20028;-62
2023/06/08 02:13:39;;;;;;;15.70;7.30;;;;;;;-142.75;100.00;77129.38;5067070;28;20103;-62
2023/06/08 02:16:05;;;;;;;14.48;6.32;;;;;;;-142.75;100.00;77127.41;5066633;28;20115;-62
2023/06/08 02:18:30;;;;;;;13.43;7.38;;;;;;;-142.75;100.00;77135.28;5066954;28;20120;-62
2023/06/08 02:20:56;;;;;;;15.20;6.88;;;;;;;-142.75;100.00;77145.13;5066664;28;20039;-59
2023/06/08 02:23:21;;;;;;;15.85;7.15;;;;;;;-142.75;100.00;77153.00;5066898;28;20027;-61
2023/06/08 02:25:50;;;;;;;15.65;6.82;;;;;;;-142.75;100.00;77182.53;5066699;28;20051;-63
2023/06/08 02:28:15;;;;;;;15.20;7.35;;;;;;;-142.75;100.00;77174.66;5066657;28;20017;-62
2023/06/08 02:30:40;;;;;;;14.15;6.70;;;;;;;-142.75;100.00;77184.50;5066588;28;20454;-61
2023/06/08 02:33:06;;;;;;;19.30;6.93;;;;;;;-142.75;100.00;77184.50;5066332;28;20534;-62
2023/06/08 02:35:31;;;;;;;17.15;7.43;;;;;;;-142.75;100.00;77196.31;5066873;28;20020;-62
2023/06/08 02:37:57;;;;;;;13.90;6.38;;;;;;;-142.75;100.00;77188.44;5066802;28;20029;-62
2023/06/08 02:40:22;;;;;;;16.65;7.00;;;;;;;-142.75;100.00;77180.56;5066436;28;20017;-64
2023/06/08 02:42:47;;;;;;;23.95;7.38;;;;;;;-142.75;100.00;77178.59;5066387;28;20059;-64
2023/06/08 02:45:13;;;;;;;17.25;7.07;;;;;;;-142.75;100.00;77174.66;5066138;28;20100;-60
2023/06/08 02:47:38;;;;;;;14.40;6.97;;;;;;;-142.75;100.00;77188.44;5066551;28;20477;-63
2023/06/08 02:50:03;;;;;;;16.10;6.55;;;;;;;-142.75;100.00;77200.25;5066089;28;20667;-60
2023/06/08 02:52:29;;;;;;;11.45;7.03;;;;;;;-142.75;100.00;77186.47;5064685;28;20031;-62
2023/06/08 02:54:54;;;;;;;17.20;7.53;;;;;;;-142.75;100.00;77196.31;5065187;28;20036;-63
2023/06/08 02:57:20;;;;;;;17.25;6.88;;;;;;;-142.75;100.00;77194.34;5066190;28;20024;-62
2023/06/08 02:59:45;;;;;;;15.27;7.93;;;;;;;-142.75;100.00;77208.13;5066058;28;20024;-63
2023/06/08 03:02:11;;;;;;;18.85;7.70;;;;;;;-142.75;100.00;77243.56;5066094;28;20593;-62
2023/06/08 03:04:37;;;;;;;18.58;7.28;;;;;;;-142.75;100.00;77227.81;5065736;28;20107;-63
2023/06/08 03:07:02;;;;;;;12.00;6.05;;;;;;;-142.75;100.00;77212.06;5066262;28;20025;-62
2023/06/08 03:09:28;;;;;;;17.35;7.05;;;;;;;-142.75;100.00;77237.66;5066245;28;20031;-64
2023/06/08 03:11:54;;;;;;;21.95;7.00;;;;;;;-142.75;100.00;77263.25;5065788;28;20537;-64
2023/06/08 03:14:20;;;;;;;21.30;7.40;;;;;;;-142.75;100.00;77282.94;5065676;28;20028;-65
2023/06/08 03:16:46;;;;;;;15.48;7.18;;;;;;;-142.75;100.00;77259.31;5065765;28;20025;-64
2023/06/08 03:19:12;;;;;;;15.32;6.72;;;;;;;-142.75;100.00;77239.63;5063984;28;20016;-65
2023/06/08 03:21:38;;;;;;;13.45;6.75;;;;;;;-142.75;100.00;77233.72;5061596;28;20103;-64
2023/06/08 03:24:04;;;;;;;19.40;7.72;;;;;;;-142.75;100.00;77239.63;5065298;28;20099;-64
2023/06/08 03:26:30;;;;;;;15.82;7.47;;;;;;;-142.75;100.00;77231.75;5065430;28;20676;-60
2023/06/08 03:28:55;;;;;;;15.07;6.82;;;;;;;-142.75;100.00;77223.88;5065435;28;20028;-63
2023/06/08 03:31:20;;;;;;;18.13;7.00;;;;;;;-142.75;100.00;77217.97;5065127;28;20021;-64
2023/06/08 03:33:47;;;;;;;15.27;7.40;;;;;;;-142.75;100.00;77229.78;5065121;28;20029;-64
2023/06/08 03:36:13;;;;;;;12.27;6.43;;;;;;;-142.75;100.00;77223.88;5065723;28;20104;-64
2023/06/08 03:38:38;;;;;;;15.32;7.47;;;;;;;-142.75;100.00;77223.88;5065484;28;20060;-64
2023/06/08 03:41:04;;;;;;;14.75;6.95;;;;;;;-142.75;100.00;77231.75;5079408;28;20052;-64
2023/06/08 03:43:29;;;;;;;13.27;6.30;;;;;;;-142.75;100.00;77229.78;5063615;28;20453;-64
2023/06/08 03:45:55;;;;;;;13.57;7.40;;;;;;;-142.75;100.00;77231.75;5064304;28;20059;-63
2023/06/08 03:48:20;;;;;;;11.85;7.25;;;;;;;-142.75;100.00;77231.75;5065301;28;20020;-63
2023/06/08 03:50:45;;;;;;;13.95;7.32;;;;;;;-142.75;100.00;77243.56;5065233;28;20024;-64
2023/06/08 03:53:11;;;;;;;15.38;7.07;;;;;;;-142.75;100.00;77227.81;5065272;28;20477;-64
2023/06/08 03:55:37;;;;;;;13.07;7.05;;;;;;;-142.75;100.00;77235.69;5077750;23;20037;-66
2023/06/08 03:58:02;;;;;;;15.65;7.82;;;;;;;-142.75;100.00;77227.81;5042673;28;20028;-66
2023/06/08 04:00:29;;;;;;;12.10;7.15;;;;;;;-142.75;100.00;77223.88;5042893;28;20017;-66
2023/06/08 04:02:54;;;;;;;13.77;6.88;;;;;;;-142.75;100.00;77233.72;5045090;28;20060;-67
2023/06/08 04:05:20;;;;;;;20.90;7.75;;;;;;;-142.75;100.00;77223.88;5038967;28;20560;-66
2023/06/08 04:07:47;;;;;;;15.73;6.40;;;;;;;-142.75;100.00;77233.72;5025536;28;20013;-65
2023/06/08 04:10:13;;;;;;;14.20;8.02;;;;;;;-142.75;100.00;77235.69;5025043;28;20033;-64
2023/06/08 04:12:38;;;;;;;19.40;7.22;;;;;;;-142.75;100.00;77231.75;5025136;28;20028;-66
2023/06/08 04:15:07;;;;;;;11.65;7.20;;;;;;;-142.75;100.00;77231.75;5024919;28;20036;-66
2023/06/08 04:17:33;;;;;;;16.15;7.68;;;;;;;-142.75;100.00;77253.41;5025257;28;20071;-66
2023/06/08 04:19:58;;;;;;;16.55;7.65;;;;;;;-142.75;100.00;77247.50;5025047;28;20586;-65
2023/06/08 04:22:23;;;;;;;18.52;8.13;;;;;;;-142.75;100.00;77243.56;5024964;28;20101;-66
2023/06/08 04:24:49;;;;;;;15.38;7.57;;;;;;;-142.75;100.00;77233.72;5025050;28;20219;-66
2023/06/08 04:27:16;;;;;;;21.33;7.93;;;;;;;-142.75;100.00;77216.00;5024988;28;20033;-65
2023/06/08 04:29:41;;;;;;;14.43;7.70;;;;;;;-142.75;100.00;77216.00;5025348;28;20679;-66
2023/06/08 04:32:07;;;;;;;16.70;7.90;;;;;;;-142.75;100.00;77216.00;5024868;28;20096;-66
2023/06/08 04:34:33;;;;;;;16.85;7.57;;;;;;;-142.75;100.00;77216.00;5024678;28;20040;-66
2023/06/08 04:36:58;;;;;;;21.63;8.85;;;;;;;-142.75;100.00;77212.06;5023858;28;20068;-66
2023/06/08 04:39:24;;;;;;;15.73;8.00;;;;;;;-142.75;100.00;77212.06;5024843;28;20036;-66
2023/06/08 04:41:49;;;;;;;17.63;7.75;;;;;;;-142.75;100.00;77216.00;5024671;28;20026;-66
2023/06/08 04:44:20;;;;;;;19.83;7.72;;;;;;;-142.75;100.00;77208.13;5024498;28;20032;-66
2023/06/08 04:46:46;;;;;;;17.15;7.55;;;;;;;-142.75;100.00;77198.28;5024784;28;20021;-65
2023/06/08 04:49:14;;;;;;;16.60;8.77;;;;;;;-142.75;100.00;77184.50;5024856;28;20025;-66
2023/06/08 04:51:40;;;;;;;15.90;7.60;;;;;;;-142.75;100.00;77190.41;5024900;28;20033;-66
2023/06/08 04:54:12;;;;;;;15.18;8.70;;;;;;;-142.75;100.00;77192.38;5024761;28;20036;-65
2023/06/08 04:56:41;;;;;;;11.45;7.43;;;;;;;-142.75;100.00;77184.50;5024228;28;20032;-65
2023/06/08 04:59:10;;;;;;;20.05;7.50;;;;;;;-142.75;100.00;77176.63;5024211;28;20025;-65
2023/06/08 05:01:35;;;;;;;14.27;8.20;;;;;;;-142.75;100.00;77164.81;5024097;28;20022;-65
2023/06/08 05:04:01;;;;;;;11.65;7.85;;;;;;;-142.75;100.00;77151.03;5024186;28;20056;-66
2023/06/08 05:06:27;;;;;;;19.48;8.00;;;;;;;-142.75;100.00;77147.09;5024758;28;20057;-65
2023/06/08 05:08:52;;;;;;;16.95;7.80;;;;;;;-142.75;100.00;77131.34;5024308;28;20063;-65
2023/06/08 05:11:17;;;;;;;15.80;8.00;;;;;;;-142.75;100.00;77129.38;5022346;28;20056;-65
2023/06/08 05:13:43;;;;;;;17.40;8.27;;;;;;;-142.75;100.00;77117.56;5024031;28;20064;-65
2023/06/08 05:16:10;;;;;;;16.83;8.48;;;;;;;-142.75;100.00;77095.91;5024545;28;20092;-65
2023/06/08 05:18:35;;;;;;;20.42;8.02;;;;;;;-142.75;100.00;77082.13;5027452;28;20022;-65
2023/06/08 05:21:01;;;;;;;15.73;8.13;;;;;;;-142.75;100.00;77076.22;5043245;28;20105;-65
2023/06/08 05:23:26;;;;;;;13.40;7.63;;;;;;;-142.75;100.00;77068.34;5028227;28;20021;-65
2023/06/08 05:25:51;;;;;;;17.10;8.13;;;;;;;-142.75;100.00;77056.53;5028129;28;20029;-65
2023/06/08 05:28:17;;;;;;;12.52;7.18;;;;;;;-142.75;100.00;77058.50;5028071;28;20097;-64
2023/06/08 05:30:42;;;;;;;16.23;8.15;;;;;;;-142.75;100.00;77054.56;5043273;28;20026;-64
2023/06/08 05:33:08;;;;;;;18.33;8.07;;;;;;;-142.75;100.00;77050.63;5027814;28;20056;-65
2023/06/08 05:35:33;;;;;;;17.45;7.78;;;;;;;-142.75;100.00;77052.59;5029527;28;20087;-65
2023/06/08 05:37:58;;;;;;;16.65;7.70;;;;;;;-142.75;100.00;77036.84;5027781;28;20087;-65
2023/06/08 05:40:24;;;;;;;18.20;7.82;;;;;;;-142.75;100.00;77019.13;5027366;28;20033;-65
2023/06/08 05:42:50;;;;;;;18.48;7.82;;;;;;;-142.75;100.00;77007.31;5027107;28;20029;-65
2023/06/08 05:45:16;;;;;;;15.73;7.10;;;;;;;-142.75;100.00;76989.59;5026777;28;20032;-65
2023/06/08 05:47:42;;;;;;;13.93;7.88;;;;;;;-142.75;100.00;76989.59;5027222;28;20075;-66
2023/06/08 05:50:07;;;;;;;14.23;7.47;;;;;;;-142.75;100.00;76987.63;5027403;28;20029;-66
2023/06/08 05:52:33;;;;;;;13.43;7.63;;;;;;;-142.75;100.00;76965.97;5026420;28;20021;-65
2023/06/08 05:54:58;;;;;;;13.88;7.53;;;;;;;-142.75;100.00;76964.00;5024741;28;20030;-65
2023/06/08 05:57:24;;;;;;;15.40;7.25;;;;;;;-142.75;100.00;76948.25;5027160;28;20029;-65
2023/06/08 05:59:50;;;;;;;18.27;7.57;;;;;;;-142.75;100.00;76956.13;5027240;28;20548;-65
2023/06/08 06:02:15;;;;;;;14.95;7.30;;;;;;;-142.75;100.00;76950.22;5028117;28;20083;-65
2023/06/08 06:04:40;;;;;;;14.27;7.00;;;;;;;-142.75;100.00;76932.50;5027073;28;20064;-65
2023/06/08 06:07:06;;;;;;;12.05;7.18;;;;;;;-142.75;100.00;76924.63;5027510;28;20482;-65
2023/06/08 06:09:32;;;;;;;15.48;7.22;;;;;;;-142.75;100.00;76906.91;5026730;28;20025;-66
2023/06/08 06:11:57;;;;;;;19.75;8.32;;;;;;;-142.75;100.00;76904.94;5026334;28;20021;-65
2023/06/08 06:14:22;;;;;;;11.52;7.30;;;;;;;-142.75;100.00;76901.00;5026402;28;20040;-65
2023/06/08 06:16:47;;;;;;;14.73;7.03;;;;;;;-142.75;100.00;76899.03;5024890;28;20442;-65
2023/06/08 06:19:13;;;;;;;13.45;7.05;;;;;;;-142.75;100.00;76904.94;5024639;28;20127;-64
2023/06/08 06:21:38;;;;;;;15.05;7.40;;;;;;;-142.75;100.00;76932.50;5024616;28;20041;-65
2023/06/08 06:24:04;;;;;;;13.48;7.55;;;;;;;-142.75;100.00;76908.88;5025330;28;20022;-66
2023/06/08 06:26:29;;;;;;;17.33;7.30;;;;;;;-142.75;100.00;76891.16;5025691;28;20618;-66
2023/06/08 06:28:55;;;;;;;15.65;7.88;;;;;;;-142.75;100.00;76902.97;5024147;28;20057;-65
2023/06/08 06:31:20;;;;;;;16.48;7.55;;;;;;;-142.75;100.00;76897.06;5025991;28;20033;-65
2023/06/08 06:33:45;;;;;;;11.25;7.38;;;;;;;-142.75;100.00;76885.25;5025761;28;20029;-65
2023/06/08 06:36:11;;;;;;;19.25;6.95;;;;;;;-142.75;100.00;76881.31;5026712;28;20079;-64
2023/06/08 06:38:36;;;;;;;14.15;6.78;;;;;;;-142.75;100.00;76865.56;5024330;28;20079;-65
2023/06/08 06:41:03;;;;;;;20.15;8.25;;;;;;;-142.75;100.00;76853.75;5025323;28;20026;-67
2023/06/08 06:43:28;;;;;;;21.30;7.82;;;;;;;-142.75;100.00;76857.69;5025779;28;20021;-67
2023/06/08 06:45:54;;;;;;;13.90;6.90;;;;;;;-142.75;100.00;76861.63;5025715;28;20745;-67
2023/06/08 06:48:20;;;;;;;15.73;7.38;;;;;;;-142.75;100.00;76861.63;5025628;28;20060;-67
2023/06/08 06:50:47;;;;;;;19.20;8.43;;;;;;;-142.75;100.00;76873.44;5025539;28;20078;-68
2023/06/08 06:53:12;;;;;;;18.20;7.28;;;;;;;-142.75;100.00;76867.53;5025322;28;20032;-67
2023/06/08 06:55:38;;;;;;;13.63;6.82;;;;;;;-142.75;100.00;76877.38;5023999;28;20025;-66
2023/06/08 06:58:04;;;;;;;13.35;7.18;;;;;;;-142.75;100.00;76865.56;5023884;28;20083;-66
2023/06/08 07:00:32;;;;;;;12.40;6.93;;;;;;;-142.75;100.00;76861.63;5023986;28;20029;-67
2023/06/08 07:02:57;;;;;;;14.55;8.50;;;;;;;-142.75;100.00;76861.63;5025568;28;20056;-66
2023/06/08 07:05:23;;;;;;;13.60;6.93;;;;;;;-142.75;100.00;76865.56;5025546;28;20067;-67
2023/06/08 07:07:48;;;;;;;12.48;6.65;;;;;;;-142.75;100.00;76849.81;5024045;28;20083;-67
2023/06/08 07:10:14;;;;;;;15.32;7.85;;;;;;;-142.75;100.00;76832.09;5025453;28;20029;-65
2023/06/08 07:12:39;;;;;;;16.00;6.50;;;;;;;-142.75;100.00;76839.97;5024980;28;20660;-65
2023/06/08 07:15:05;;;;;;;16.85;7.07;;;;;;;-142.75;100.00;76834.06;5024986;28;20048;-65
2023/06/08 07:17:30;;;;;;;14.55;7.25;;;;;;;-142.75;100.00;76824.22;5040787;28;20025;-65
2023/06/08 07:19:57;;;;;;;14.07;6.85;;;;;;;-142.75;100.00;76794.69;5025318;28;20491;-65
2023/06/08 07:22:22;;;;;;;14.48;7.00;;;;;;;-142.75;100.00;76773.06;5025006;28;20029;-65
2023/06/08 07:24:48;;;;;;;14.80;7.55;;;;;;;-142.75;100.00;76731.72;5025214;28;20172;-65
2023/06/08 07:27:13;;;;;;;17.15;7.03;;;;;;;-142.75;100.00;76704.16;5025196;28;20556;-65
2023/06/08 07:29:38;;;;;;;11.63;7.15;;;;;;;-142.75;100.00;76680.53;5025320;28;20644;-65
2023/06/08 07:32:04;;;;;;;12.07;6.90;;;;;;;-142.75;100.00;76666.75;5025049;28;20033;-66
2023/06/08 07:34:31;;;;;;;10.68;5.78;;;;;;;-142.75;100.00;76664.78;5024883;28;20518;-66
2023/06/08 07:36:56;;;;;;;14.20;6.43;;;;;;;-142.75;100.00;76645.09;5025710;28;20029;-66
2023/06/08 07:39:21;;;;;;;17.13;6.63;;;;;;;-142.75;100.00;76605.72;5025529;28;20025;-66
2023/06/08 07:41:47;;;;;;;11.05;5.78;;;;;;;-142.75;100.00;76589.97;5025084;28;20048;-66
2023/06/08 07:44:12;;;;;;;12.93;6.45;;;;;;;-142.75;100.00;76570.28;5025909;28;20028;-66
2023/06/08 07:46:37;;;;;;;11.40;6.22;;;;;;;-142.75;100.00;76597.84;5025363;28;20060;-66
2023/06/08 07:49:03;;;;;;;10.32;6.00;;;;;;;-142.75;100.00;76593.91;5025411;28;20035;-66
2023/06/08 07:51:28;;;;;;;9.82;5.43;;;;;;;-142.75;100.00;76558.47;5025543;28;20033;-65
2023/06/08 07:53:53;;;;;;;9.05;5.43;;;;;;;-142.75;100.00;76542.72;5026163;28;20068;-65
2023/06/08 07:56:18;;;;;;;9.65;5.35;;;;;;;-142.75;100.00;76519.13;5041465;28;20064;-65
2023/06/08 07:58:44;;;;;;;9.48;5.55;;;;;;;-142.75;100.00;76519.13;5026602;28;20242;-64
2023/06/08 08:01:09;;;;;;;11.98;5.82;;;;;;;-142.75;100.00;76503.38;5026595;28;20120;-66
2023/06/08 08:03:38;;;;;;;15.70;5.82;;;;;;;-142.75;100.00;76550.59;5026699;28;20056;-66
2023/06/08 08:06:04;;;;;;;12.68;5.30;;;;;;;-142.75;100.00;76528.97;5026702;28;20108;-65
2023/06/08 08:08:30;;;;;;;11.98;5.75;;;;;;;-142.75;100.00;76544.69;5026480;28;20721;-66
2023/06/08 08:10:55;;;;;;;14.00;6.47;;;;;;;-142.75;100.00;76515.19;5026375;28;20025;-66
2023/06/08 08:13:20;;;;;;;16.35;6.38;;;;;;;-142.75;100.00;76499.44;5026107;28;20048;-65
2023/06/08 08:15:46;;;;;;;11.05;6.05;;;;;;;-142.75;100.00;76487.63;5041903;28;20040;-65
2023/06/08 08:18:13;;;;;;;13.43;6.60;;;;;;;-142.75;100.00;76465.97;5026815;28;20032;-66
2023/06/08 08:20:38;;;;;;;14.55;6.32;;;;;;;-142.75;100.00;76458.09;5026344;28;20033;-65
2023/06/08 08:23:04;;;;;;;14.48;7.00;;;;;;;-142.75;100.00;76469.91;5026205;28;20033;-66
2023/06/08 08:25:29;;;;;;;15.98;7.10;;;;;;;-142.75;100.00;76456.13;5024443;28;20505;-67
2023/06/08 08:27:54;;;;;;;12.70;6.20;;;;;;;-142.75;100.00;76434.47;5025647;28;20403;-66
2023/06/08 08:30:20;;;;;;;12.13;6.75;;;;;;;-142.75;100.00;76402.97;5026120;28;20116;-66
2023/06/08 08:32:45;;;;;;;14.70;7.13;;;;;;;-142.75;100.00;76385.25;5025614;28;20048;-67
2023/06/08 08:35:11;;;;;;;14.27;7.13;;;;;;;-142.75;100.00;76375.41;5025666;28;20018;-67
2023/06/08 08:37:36;;;;;;;15.13;6.88;;;;;;;-142.75;100.00;76369.50;5022790;28;20041;-66
2023/06/08 08:40:02;;;;;;;12.73;6.15;;;;;;;-142.75;100.00;76365.56;5026968;28;20137;-66
2023/06/08 08:42:31;;;;;;;12.82;6.80;;;;;;;-142.75;100.00;76347.84;5025147;28;20498;-66
2023/06/08 08:45:00;;;;;;;12.98;6.65;;;;;;;-142.75;100.00;76326.22;5025975;28;20014;-66
2023/06/08 08:47:29;;;;;;;11.68;5.93;;;;;;;-142.75;100.00;76324.25;5025949;28;20056;-66
2023/06/08 08:50:06;;;;;;;14.55;7.65;;;;;;;-142.75;100.00;76345.91;5025292;28;20029;-65
2023/06/08 08:52:37;;;;;;;14.13;7.50;;;;;;;-142.75;100.00;76302.59;5027195;28;20063;-66
2023/06/08 08:55:04;;;;;;;19.15;6.75;;;;;;;-142.75;100.00;76324.25;5029068;28;20049;-66
2023/06/08 08:57:30;;;;;;;12.60;6.63;;;;;;;-142.75;100.00;76278.97;5029406;28;20140;-66
2023/06/08 08:59:56;;;;;;;11.57;6.97;;;;;;;-142.75;100.00;76247.47;5044780;28;20033;-66
2023/06/08 09:02:22;;;;;;;13.25;7.20;;;;;;;-142.75;100.00;76243.53;5029078;28;20024;-66
2023/06/08 09:04:47;;;;;;;13.77;6.60;;;;;;;-142.75;100.00;76237.63;5029409;28;20041;-66
2023/06/08 09:07:20;;;;;;;14.07;6.97;;;;;;;-142.75;100.00;76219.91;5044522;28;20056;-67
2023/06/08 09:10:22;;;;;;;13.65;6.80;;;;;;;-142.75;100.00;76208.09;5029042;28;20021;-66
2023/06/08 09:12:49;;;;;;;13.70;7.25;;;;;;;-142.75;100.00;76192.38;5028859;28;20109;-66
2023/06/08 09:15:26;;;;;;;15.23;7.18;;;;;;;-142.75;100.00;76208.09;5029213;28;20017;-66
2023/06/08 09:17:53;;;;;;;11.60;6.63;;;;;;;-142.75;99.20;76190.41;5043510;28;20028;-66
2023/06/08 09:20:32;;;;;;;12.45;6.55;;;;;;;-142.75;98.74;76184.50;5028875;28;20747;-66
2023/06/08 09:22:58;;;;;;;17.10;7.13;;;;;;;-142.75;99.29;76168.75;5027546;28;20120;-66
2023/06/08 09:25:37;;;;;;;12.07;6.60;;;;;;;-142.75;96.71;76153.00;5028763;28;20009;-66
2023/06/08 09:28:25;;;;;;;13.98;7.30;;;;;;;-142.75;98.47;76141.19;5028633;28;20033;-66
2023/06/08 09:30:51;;;;;;;16.45;7.00;;;;;;;-142.75;100.00;76109.69;5027687;28;20021;-65
2023/06/08 09:33:24;;;;;;;18.33;6.32;;;;;;;-142.75;99.57;76113.63;5028023;28;20052;-66
2023/06/08 09:36:15;;;;;;;20.65;6.75;;;;;;;-142.75;100.00;76093.94;5027502;28;20029;-66
2023/06/08 09:38:42;;;;;;;14.13;7.30;;;;;;;-142.75;95.32;76103.78;5028268;28;20033;-65
2023/06/08 09:41:16;;;;;;;12.55;6.60;;;;;;;-142.75;94.59;76111.66;5028682;28;20112;-65
2023/06/08 09:43:44;;;;;;;12.10;6.13;;;;;;;-142.75;90.95;76113.63;5029302;28;20105;-65
2023/06/08 09:46:16;;;;;;;11.15;6.10;;;;;;;-142.75;98.88;76097.88;5029010;28;20104;-65
2023/06/08 09:48:54;;;;;;;17.20;6.78;;;;;;;-142.75;98.53;76060.50;5029178;28;20030;-65
2023/06/08 09:51:22;;;;;;;13.13;6.90;;;;;;;-142.75;92.75;76091.97;5028598;28;20033;-65
2023/06/08 09:53:58;;;;;;;13.30;7.65;;;;;;;-142.75;93.97;76076.22;5028999;28;20022;-65
2023/06/08 09:56:25;;;;;;;;;;;;;;;-142.75;97.02;76048.69;5029770;28;20029;-66
2023/06/08 09:58:56;;;;;;;12.70;6.68;;;;;;;-142.75;97.30;76030.97;5028943;28;19916;-66
2023/06/08 10:01:41;;;;;;;16.33;7.22;;;;;;;-142.75;100.00;76015.22;5028563;28;20029;-66
2023/06/08 10:04:20;;;;;;;12.35;6.53;;;;;;;-142.75;96.24;75979.78;5028689;28;20033;-66
2023/06/08 10:06:47;;;;;;;12.30;6.82;;;;;;;-142.75;96.69;75969.94;5028705;28;20687;-66
2023/06/08 10:09:16;;;;;;;12.32;6.85;;;;;;;-142.75;92.91;75952.25;5028745;28;20040;-66
2023/06/08 10:11:41;;;;;;;11.70;6.82;;;;;;;-142.75;90.56;75983.72;5028509;28;20037;-66
2023/06/08 10:14:08;;;;;;;14.55;7.63;;;;;;;-142.75;95.04;75952.25;5028252;28;20021;-66
2023/06/08 10:16:35;;;;;;;14.20;6.97;;;;;;;-142.75;96.94;75928.63;5028371;28;20068;-66
2023/06/08 10:19:02;;;;;;;15.07;6.47;;;;;;;-142.75;92.36;75952.25;5028341;28;20465;-67
2023/06/08 10:21:29;;;;;;;16.42;7.22;;;;;;;-142.75;95.02;75914.84;5028015;28;20033;-66
2023/06/08 10:23:56;;;;;;;14.48;7.32;;;;;;;-142.75;92.47;75962.09;5028416;28;20029;-67
2023/06/08 10:26:23;;;;;;;15.45;7.90;;;;;;;-142.75;92.50;75956.19;5028087;28;20021;-67
2023/06/08 10:29:10;;;;;;;10.60;6.43;;;;;;;-142.75;92.74;75948.31;5043583;28;20037;-67
2023/06/08 10:31:40;;;;;;;10.25;5.97;;;;;;;-142.75;94.11;75914.84;5028151;28;20025;-66
2023/06/08 10:34:11;;;;;;;11.43;6.60;;;;;;;-142.75;96.10;75889.25;5028317;28;20034;-66
2023/06/08 10:36:39;;;;;;;16.70;6.93;;;;;;;-142.75;92.52;75905.00;5028115;28;20083;-67
2023/06/08 10:39:16;;;;;;;14.43;7.38;;;;;;;-142.75;96.17;75885.31;5027825;28;20022;-66
2023/06/08 10:41:53;;;;;;;18.05;7.55;;;;;;;-142.75;94.13;75857.78;5028000;28;20083;-66
2023/06/08 10:44:40;;;;;;;14.90;6.55;;;;;;;-142.75;93.17;75830.22;5027893;28;20095;-66
2023/06/08 10:47:07;;;;;;;13.60;6.75;;;;;;;-142.75;90.90;75810.53;5027901;28;20025;-67
2023/06/08 10:49:38;;;;;;;13.55;7.13;;;;;;;-142.75;91.46;75790.84;5027543;28;20083;-67
2023/06/08 10:52:05;;;;;;;11.32;6.32;;;;;;;-142.75;93.16;75775.09;5027575;28;20390;-66
2023/06/08 10:54:48;;;;;;;10.90;6.28;;;;;;;-142.75;89.59;75761.34;5027408;28;20511;-66
2023/06/08 10:57:36;;;;;;;10.82;6.07;;;;;;;-142.75;89.21;75731.81;5027642;28;20096;-66
2023/06/08 11:00:28;;;;;;;15.30;6.00;;;;;;;-142.75;90.31;75729.84;5027572;28;20727;-65
2023/06/08 11:02:54;;;;;;;16.35;6.30;;;;;;;-142.75;89.18;75733.78;5027060;28;20041;-66
2023/06/08 11:05:20;;;;;;;13.48;6.05;;;;;;;-142.75;89.27;75706.22;5027516;28;20025;-66